sensor_id;sensor_type;location;lat;lon;timestamp;pressure;altitude;pressure_sealevel;temperature;humidity
77877;BME280;67251;50.844;7.978;2023-04-06T00:01:24;99073.13;;;-4.17;85.89
77877;BME280;67251;50.844;7.978;2023-04-06T00:03:50;99070.41;;;-4.16;85.45
77877;BME280;67251;50.844;7.978;2023-04-06T00:06:16;99067.69;;;-4.14;85.62
77877;BME280;67251;50.844;7.978;2023-04-06T00:08:41;99063.94;;;-4.10;85.57
77877;BME280;67251;50.844;7.978;2023-04-06T00:11:06;99062.47;;;-4.27;85.85
77877;BME280;67251;50.844;7.978;2023-04-06T00:13:32;99061.59;;;-4.40;86.38
77877;BME280;67251;50.844;7.978;2023-04-06T00:15:57;99055.44;;;-4.39;86.71
77877;BME280;67251;50.844;7.978;2023-04-06T00:18:23;99054.25;;;-4.48;86.70
77877;BME280;67251;50.844;7.978;2023-04-06T00:20:49;99059.66;;;-4.64;86.52
77877;BME280;67251;50.844;7.978;2023-04-06T00:23:16;99056.06;;;-4.75;87.10
77877;BME280;67251;50.844;7.978;2023-04-06T00:25:41;99048.06;;;-4.72;86.91
77877;BME280;67251;50.844;7.978;2023-04-06T00:28:07;99054.56;;;-4.52;87.48
77877;BME280;67251;50.844;7.978;2023-04-06T00:30:32;99048.75;;;-4.43;87.11
77877;BME280;67251;50.844;7.978;2023-04-06T00:32:57;99051.16;;;-4.40;86.72
77877;BME280;67251;50.844;7.978;2023-04-06T00:35:23;99043.97;;;-4.37;86.86
77877;BME280;67251;50.844;7.978;2023-04-06T00:37:48;99045.53;;;-4.34;87.07
77877;BME280;67251;50.844;7.978;2023-04-06T00:40:14;99054.41;;;-4.37;87.10
77877;BME280;67251;50.844;7.978;2023-04-06T00:42:40;99040.03;;;-4.56;86.84
77877;BME280;67251;50.844;7.978;2023-04-06T00:45:07;99049.00;;;-4.73;86.90
77877;BME280;67251;50.844;7.978;2023-04-06T00:47:33;99040.94;;;-4.83;87.05
77877;BME280;67251;50.844;7.978;2023-04-06T00:49:58;99041.69;;;-4.95;87.51
77877;BME280;67251;50.844;7.978;2023-04-06T00:52:24;99037.00;;;-5.03;87.87
77877;BME280;67251;50.844;7.978;2023-04-06T00:54:49;99039.38;;;-5.00;88.12
77877;BME280;67251;50.844;7.978;2023-04-06T00:57:16;99039.09;;;-4.95;87.90
77877;BME280;67251;50.844;7.978;2023-04-06T00:59:42;99029.50;;;-4.95;87.73
77877;BME280;67251;50.844;7.978;2023-04-06T01:02:08;99029.06;;;-5.01;87.95
77877;BME280;67251;50.844;7.978;2023-04-06T01:04:34;99024.13;;;-5.06;88.08
77877;BME280;67251;50.844;7.978;2023-04-06T01:06:59;99024.56;;;-4.99;88.67
77877;BME280;67251;50.844;7.978;2023-04-06T01:09:27;99019.28;;;-4.85;88.35
77877;BME280;67251;50.844;7.978;2023-04-06T01:11:54;99023.00;;;-4.75;88.53
77877;BME280;67251;50.844;7.978;2023-04-06T01:14:20;99018.69;;;-4.76;88.22
77877;BME280;67251;50.844;7.978;2023-04-06T01:16:46;99018.09;;;-4.67;87.57
77877;BME280;67251;50.844;7.978;2023-04-06T01:19:12;99015.34;;;-4.78;87.66
77877;BME280;67251;50.844;7.978;2023-04-06T01:21:39;99012.75;;;-4.78;87.89
77877;BME280;67251;50.844;7.978;2023-04-06T01:24:05;99008.31;;;-4.90;87.46
77877;BME280;67251;50.844;7.978;2023-04-06T01:26:31;99006.31;;;-4.99;87.63
77877;BME280;67251;50.844;7.978;2023-04-06T01:28:57;99003.69;;;-4.99;88.30
77877;BME280;67251;50.844;7.978;2023-04-06T01:31:23;99005.03;;;-5.06;87.91
77877;BME280;67251;50.844;7.978;2023-04-06T01:33:49;98996.47;;;-5.08;88.67
77877;BME280;67251;50.844;7.978;2023-04-06T01:36:15;98996.50;;;-4.96;88.76
77877;BME280;67251;50.844;7.978;2023-04-06T01:38:40;99001.53;;;-4.93;88.75
77877;BME280;67251;50.844;7.978;2023-04-06T01:41:07;98987.22;;;-5.00;88.76
77877;BME280;67251;50.844;7.978;2023-04-06T01:43:32;98992.53;;;-5.01;88.94
77877;BME280;67251;50.844;7.978;2023-04-06T01:45:58;98987.91;;;-5.10;88.90
77877;BME280;67251;50.844;7.978;2023-04-06T01:48:23;98993.19;;;-5.25;89.18
77877;BME280;67251;50.844;7.978;2023-04-06T01:54:25;98986.25;;;-5.11;89.66
77877;BME280;67251;50.844;7.978;2023-04-06T01:56:50;98989.56;;;-5.09;89.53
77877;BME280;67251;50.844;7.978;2023-04-06T01:59:17;98984.13;;;-5.19;89.08
77877;BME280;67251;50.844;7.978;2023-04-06T02:01:43;98981.00;;;-5.38;89.12
77877;BME280;67251;50.844;7.978;2023-04-06T02:04:08;98982.22;;;-5.30;90.55
77877;BME280;67251;50.844;7.978;2023-04-06T02:06:33;98979.50;;;-5.28;90.24
77877;BME280;67251;50.844;7.978;2023-04-06T02:08:59;98981.97;;;-5.12;90.18
77877;BME280;67251;50.844;7.978;2023-04-06T02:11:24;98982.88;;;-5.14;89.46
77877;BME280;67251;50.844;7.978;2023-04-06T02:13:50;98974.19;;;-5.27;89.26
77877;BME280;67251;50.844;7.978;2023-04-06T02:16:15;98977.19;;;-5.33;89.61
77877;BME280;67251;50.844;7.978;2023-04-06T02:18:41;98982.13;;;-5.43;89.74
77877;BME280;67251;50.844;7.978;2023-04-06T02:21:06;98975.13;;;-5.55;89.98
77877;BME280;67251;50.844;7.978;2023-04-06T02:23:32;98978.91;;;-5.60;90.57
77877;BME280;67251;50.844;7.978;2023-04-06T02:25:57;98978.00;;;-5.59;89.94
77877;BME280;67251;50.844;7.978;2023-04-06T02:28:22;98970.19;;;-5.59;90.42
77877;BME280;67251;50.844;7.978;2023-04-06T02:30:48;98972.22;;;-5.50;90.50
77877;BME280;67251;50.844;7.978;2023-04-06T02:33:13;98974.34;;;-5.57;90.53
77877;BME280;67251;50.844;7.978;2023-04-06T02:35:39;98974.75;;;-5.63;90.57
77877;BME280;67251;50.844;7.978;2023-04-06T02:38:04;98973.16;;;-5.66;90.57
77877;BME280;67251;50.844;7.978;2023-04-06T02:40:30;98969.06;;;-5.70;90.58
77877;BME280;67251;50.844;7.978;2023-04-06T02:42:55;98973.84;;;-5.76;90.80
77877;BME280;67251;50.844;7.978;2023-04-06T02:45:20;98977.00;;;-5.71;91.29
77877;BME280;67251;50.844;7.978;2023-04-06T02:47:46;98966.13;;;-5.51;91.41
77877;BME280;67251;50.844;7.978;2023-04-06T02:50:11;98964.94;;;-5.45;91.07
77877;BME280;67251;50.844;7.978;2023-04-06T02:52:37;98965.00;;;-5.47;90.96
77877;BME280;67251;50.844;7.978;2023-04-06T02:55:02;98959.91;;;-5.48;90.81
77877;BME280;67251;50.844;7.978;2023-04-06T02:57:28;98962.84;;;-5.67;90.68
77877;BME280;67251;50.844;7.978;2023-04-06T02:59:53;98952.91;;;-5.48;91.55
77877;BME280;67251;50.844;7.978;2023-04-06T03:02:19;98965.00;;;-5.47;91.03
77877;BME280;67251;50.844;7.978;2023-04-06T03:04:44;98958.59;;;-5.55;91.17
77877;BME280;67251;50.844;7.978;2023-04-06T03:07:10;98961.63;;;-5.61;90.99
77877;BME280;67251;50.844;7.978;2023-04-06T03:09:37;98959.88;;;-5.75;91.20
77877;BME280;67251;50.844;7.978;2023-04-06T03:12:03;98957.19;;;-5.74;91.51
77877;BME280;67251;50.844;7.978;2023-04-06T03:14:28;98961.53;;;-5.74;91.64
77877;BME280;67251;50.844;7.978;2023-04-06T03:16:53;98954.47;;;-5.72;91.63
77877;BME280;67251;50.844;7.978;2023-04-06T03:19:19;98959.13;;;-5.63;91.92
77877;BME280;67251;50.844;7.978;2023-04-06T03:21:44;98954.66;;;-5.75;91.12
77877;BME280;67251;50.844;7.978;2023-04-06T03:24:10;98961.00;;;-5.79;91.32
77877;BME280;67251;50.844;7.978;2023-04-06T03:26:36;98965.88;;;-5.87;91.17
77877;BME280;67251;50.844;7.978;2023-04-06T03:29:01;98956.88;;;-5.96;91.35
77877;BME280;67251;50.844;7.978;2023-04-06T03:31:27;98954.84;;;-6.05;91.30
77877;BME280;67251;50.844;7.978;2023-04-06T03:33:52;98966.53;;;-6.12;91.43
77877;BME280;67251;50.844;7.978;2023-04-06T03:36:18;98963.22;;;-6.14;92.16
77877;BME280;67251;50.844;7.978;2023-04-06T03:38:43;98960.50;;;-6.13;92.27
77877;BME280;67251;50.844;7.978;2023-04-06T03:41:09;98970.56;;;-6.07;92.13
77877;BME280;67251;50.844;7.978;2023-04-06T03:43:35;98964.50;;;-6.07;92.12
77877;BME280;67251;50.844;7.978;2023-04-06T03:46:01;98972.84;;;-6.02;92.48
77877;BME280;67251;50.844;7.978;2023-04-06T03:48:26;98956.16;;;-5.85;92.83
77877;BME280;67251;50.844;7.978;2023-04-06T03:50:52;98961.75;;;-5.77;92.38
77877;BME280;67251;50.844;7.978;2023-04-06T03:53:17;98965.88;;;-5.87;92.32
77877;BME280;67251;50.844;7.978;2023-04-06T03:55:42;98963.38;;;-6.03;92.30
77877;BME280;67251;50.844;7.978;2023-04-06T03:58:08;98970.47;;;-6.20;92.01
77877;BME280;67251;50.844;7.978;2023-04-06T04:00:33;98965.31;;;-6.35;92.22
77877;BME280;67251;50.844;7.978;2023-04-06T04:02:59;98973.06;;;-6.48;92.32
77877;BME280;67251;50.844;7.978;2023-04-06T04:05:25;98970.44;;;-6.48;92.78
77877;BME280;67251;50.844;7.978;2023-04-06T04:07:51;98971.44;;;-6.51;92.74
77877;BME280;67251;50.844;7.978;2023-04-06T04:10:17;98970.91;;;-6.41;92.90
77877;BME280;67251;50.844;7.978;2023-04-06T04:12:42;98972.69;;;-6.42;92.60
77877;BME280;67251;50.844;7.978;2023-04-06T04:15:08;98983.63;;;-6.51;92.75
77877;BME280;67251;50.844;7.978;2023-04-06T04:17:35;98976.00;;;-6.40;93.30
77877;BME280;67251;50.844;7.978;2023-04-06T04:20:01;98981.34;;;-6.13;93.53
77877;BME280;67251;50.844;7.978;2023-04-06T04:22:26;98976.88;;;-5.97;93.38
77877;BME280;67251;50.844;7.978;2023-04-06T04:24:56;98980.88;;;-6.05;93.22
77877;BME280;67251;50.844;7.978;2023-04-06T04:27:21;98978.84;;;-6.14;93.18
77877;BME280;67251;50.844;7.978;2023-04-06T04:29:47;98977.06;;;-6.28;93.02
77877;BME280;67251;50.844;7.978;2023-04-06T04:32:12;98976.78;;;-6.38;93.10
77877;BME280;67251;50.844;7.978;2023-04-06T04:34:37;98977.91;;;-6.28;93.55
77877;BME280;67251;50.844;7.978;2023-04-06T04:37:05;98975.13;;;-6.10;93.75
77877;BME280;67251;50.844;7.978;2023-04-06T04:39:31;98977.78;;;-6.12;93.54
77877;BME280;67251;50.844;7.978;2023-04-06T04:41:57;98980.69;;;-6.17;93.54
77877;BME280;67251;50.844;7.978;2023-04-06T04:44:22;98977.72;;;-6.25;93.34
77877;BME280;67251;50.844;7.978;2023-04-06T04:46:47;98973.34;;;-6.24;93.35
77877;BME280;67251;50.844;7.978;2023-04-06T04:49:13;98977.06;;;-6.28;93.53
77877;BME280;67251;50.844;7.978;2023-04-06T04:51:38;98980.78;;;-6.32;93.40
77877;BME280;67251;50.844;7.978;2023-04-06T04:54:04;98974.47;;;-6.14;93.84
77877;BME280;67251;50.844;7.978;2023-04-06T04:56:29;98980.22;;;-6.09;93.36
77877;BME280;67251;50.844;7.978;2023-04-06T04:58:55;98978.44;;;-6.08;93.21
77877;BME280;67251;50.844;7.978;2023-04-06T05:01:20;98982.53;;;-6.04;93.13
77877;BME280;67251;50.844;7.978;2023-04-06T05:03:45;98981.81;;;-6.06;93.09
77877;BME280;67251;50.844;7.978;2023-04-06T05:06:11;98978.66;;;-6.11;92.97
77877;BME280;67251;50.844;7.978;2023-04-06T05:08:36;98976.13;;;-6.13;92.72
77877;BME280;67251;50.844;7.978;2023-04-06T05:11:02;98981.63;;;-6.03;92.77
77877;BME280;67251;50.844;7.978;2023-04-06T05:13:29;98980.59;;;-6.01;92.80
77877;BME280;67251;50.844;7.978;2023-04-06T05:15:54;98980.59;;;-6.01;92.73
77877;BME280;67251;50.844;7.978;2023-04-06T05:18:20;98974.56;;;-6.01;92.61
77877;BME280;67251;50.844;7.978;2023-04-06T05:20:46;98975.19;;;-5.98;92.38
77877;BME280;67251;50.844;7.978;2023-04-06T05:23:12;98980.34;;;-5.83;92.81
77877;BME280;67251;50.844;7.978;2023-04-06T05:25:38;98979.69;;;-5.58;92.59
77877;BME280;67251;50.844;7.978;2023-04-06T05:28:03;98981.41;;;-5.45;92.16
77877;BME280;67251;50.844;7.978;2023-04-06T05:30:28;98975.31;;;-5.31;91.40
77877;BME280;67251;50.844;7.978;2023-04-06T05:32:54;98984.00;;;-5.18;90.96
77877;BME280;67251;50.844;7.978;2023-04-06T05:35:20;98976.53;;;-5.09;90.51
77877;BME280;67251;50.844;7.978;2023-04-06T05:37:45;98977.19;;;-5.06;90.11
77877;BME280;67251;50.844;7.978;2023-04-06T05:40:11;98979.38;;;-5.00;90.00
77877;BME280;67251;50.844;7.978;2023-04-06T05:42:41;98974.81;;;-4.96;89.84
77877;BME280;67251;50.844;7.978;2023-04-06T05:45:09;98971.06;;;-4.92;89.38
77877;BME280;67251;50.844;7.978;2023-04-06T05:47:34;98974.63;;;-4.80;89.25
77877;BME280;67251;50.844;7.978;2023-04-06T05:50:00;98974.66;;;-4.68;88.83
77877;BME280;67251;50.844;7.978;2023-04-06T05:52:25;98980.84;;;-4.56;88.23
77877;BME280;67251;50.844;7.978;2023-04-06T05:54:51;98975.00;;;-4.47;87.81
77877;BME280;67251;50.844;7.978;2023-04-06T05:57:17;98967.69;;;-4.42;87.21
77877;BME280;67251;50.844;7.978;2023-04-06T05:59:43;98970.28;;;-4.29;86.70
77877;BME280;67251;50.844;7.978;2023-04-06T06:02:09;98969.34;;;-4.15;86.18
77877;BME280;67251;50.844;7.978;2023-04-06T06:04:35;98971.13;;;-4.03;85.83
77877;BME280;67251;50.844;7.978;2023-04-06T06:07:00;98975.72;;;-3.94;85.29
77877;BME280;67251;50.844;7.978;2023-04-06T06:09:26;98976.13;;;-3.87;84.78
77877;BME280;67251;50.844;7.978;2023-04-06T06:11:51;98969.28;;;-3.77;84.39
77877;BME280;67251;50.844;7.978;2023-04-06T06:14:17;98961.44;;;-3.64;84.60
77877;BME280;67251;50.844;7.978;2023-04-06T06:16:42;98964.00;;;-3.51;83.97
77877;BME280;67251;50.844;7.978;2023-04-06T06:19:08;98959.78;;;-3.41;83.60
77877;BME280;67251;50.844;7.978;2023-04-06T06:21:33;98960.59;;;-3.28;82.96
77877;BME280;67251;50.844;7.978;2023-04-06T06:23:58;98956.22;;;-3.16;82.14
77877;BME280;67251;50.844;7.978;2023-04-06T06:26:24;98948.81;;;-2.98;82.04
77877;BME280;67251;50.844;7.978;2023-04-06T06:28:49;98956.47;;;-2.84;81.45
77877;BME280;67251;50.844;7.978;2023-04-06T06:31:15;98954.13;;;-2.76;81.24
77877;BME280;67251;50.844;7.978;2023-04-06T06:33:41;98952.38;;;-2.64;80.83
77877;BME280;67251;50.844;7.978;2023-04-06T06:36:06;98953.94;;;-2.50;79.62
77877;BME280;67251;50.844;7.978;2023-04-06T06:38:32;98957.31;;;-2.37;78.58
77877;BME280;67251;50.844;7.978;2023-04-06T06:40:57;98960.94;;;-2.16;77.99
77877;BME280;67251;50.844;7.978;2023-04-06T06:43:23;98963.78;;;-1.96;77.11
77877;BME280;67251;50.844;7.978;2023-04-06T06:45:49;98957.81;;;-1.76;77.03
77877;BME280;67251;50.844;7.978;2023-04-06T06:48:14;98958.16;;;-1.58;75.87
77877;BME280;67251;50.844;7.978;2023-04-06T06:50:40;98953.44;;;-1.32;75.76
77877;BME280;67251;50.844;7.978;2023-04-06T06:53:05;98959.13;;;-1.16;74.32
77877;BME280;67251;50.844;7.978;2023-04-06T06:55:31;98950.38;;;-1.05;73.14
77877;BME280;67251;50.844;7.978;2023-04-06T06:57:56;98953.75;;;-0.82;73.33
77877;BME280;67251;50.844;7.978;2023-04-06T07:00:22;98948.06;;;-0.45;72.59
77877;BME280;67251;50.844;7.978;2023-04-06T07:02:47;98941.13;;;2.73;65.00
77877;BME280;67251;50.844;7.978;2023-04-06T07:05:14;98919.66;;;7.46;51.11
77877;BME280;67251;50.844;7.978;2023-04-06T07:07:40;98917.19;;;10.41;43.20
77877;BME280;67251;50.844;7.978;2023-04-06T07:10:07;98913.03;;;12.52;38.68
77877;BME280;67251;50.844;7.978;2023-04-06T07:12:33;98905.19;;;14.09;34.31
77877;BME280;67251;50.844;7.978;2023-04-06T07:14:58;98892.25;;;15.32;33.24
77877;BME280;67251;50.844;7.978;2023-04-06T07:17:23;98897.06;;;15.30;30.03
77877;BME280;67251;50.844;7.978;2023-04-06T07:19:49;98898.81;;;14.95;29.03
77877;BME280;67251;50.844;7.978;2023-04-06T07:22:14;98904.75;;;14.85;29.53
77877;BME280;67251;50.844;7.978;2023-04-06T07:24:40;98892.50;;;16.08;28.90
77877;BME280;67251;50.844;7.978;2023-04-06T07:27:05;98882.31;;;17.48;28.21
77877;BME280;67251;50.844;7.978;2023-04-06T07:29:31;98892.53;;;18.13;27.16
77877;BME280;67251;50.844;7.978;2023-04-06T07:31:56;98884.66;;;18.72;27.02
77877;BME280;67251;50.844;7.978;2023-04-06T07:34:22;98872.94;;;19.48;26.26
77877;BME280;67251;50.844;7.978;2023-04-06T07:36:47;98878.22;;;20.39;24.86
77877;BME280;67251;50.844;7.978;2023-04-06T07:39:13;98875.00;;;20.42;23.69
77877;BME280;67251;50.844;7.978;2023-04-06T07:41:39;98864.88;;;20.90;23.13
77877;BME280;67251;50.844;7.978;2023-04-06T07:44:05;98863.06;;;21.67;22.71
77877;BME280;67251;50.844;7.978;2023-04-06T07:46:30;98871.50;;;22.16;21.61
77877;BME280;67251;50.844;7.978;2023-04-06T07:48:57;98853.75;;;22.19;19.62
77877;BME280;67251;50.844;7.978;2023-04-06T07:51:23;98855.44;;;21.84;20.46
77877;BME280;67251;50.844;7.978;2023-04-06T07:53:50;98857.56;;;22.23;19.48
77877;BME280;67251;50.844;7.978;2023-04-06T07:56:15;98853.31;;;22.61;19.12
77877;BME280;67251;50.844;7.978;2023-04-06T07:58:41;98854.28;;;22.16;18.43
77877;BME280;67251;50.844;7.978;2023-04-06T08:01:06;98849.13;;;22.89;18.97
77877;BME280;67251;50.844;7.978;2023-04-06T08:03:34;98841.50;;;23.65;18.47
77877;BME280;67251;50.844;7.978;2023-04-06T08:05:59;98843.31;;;24.28;17.79
77877;BME280;67251;50.844;7.978;2023-04-06T08:08:25;98845.16;;;23.84;17.31
77877;BME280;67251;50.844;7.978;2023-04-06T08:10:50;98846.09;;;23.98;17.68
77877;BME280;67251;50.844;7.978;2023-04-06T08:13:16;98845.25;;;23.74;17.08
77877;BME280;67251;50.844;7.978;2023-04-06T08:15:42;98846.25;;;23.83;17.68
77877;BME280;67251;50.844;7.978;2023-04-06T08:18:08;98843.53;;;24.36;17.56
77877;BME280;67251;50.844;7.978;2023-04-06T08:20:34;98856.19;;;22.95;16.21
77877;BME280;67251;50.844;7.978;2023-04-06T08:22:59;98849.72;;;22.71;18.45
77877;BME280;67251;50.844;7.978;2023-04-06T08:25:25;98844.63;;;23.82;17.90
77877;BME280;67251;50.844;7.978;2023-04-06T08:27:51;98840.53;;;24.09;16.99
77877;BME280;67251;50.844;7.978;2023-04-06T08:30:17;98842.75;;;24.31;17.03
77877;BME280;67251;50.844;7.978;2023-04-06T08:32:45;98836.81;;;24.90;16.33
77877;BME280;67251;50.844;7.978;2023-04-06T08:35:11;98837.00;;;24.56;16.25
77877;BME280;67251;50.844;7.978;2023-04-06T08:37:37;98838.44;;;24.91;17.11
77877;BME280;67251;50.844;7.978;2023-04-06T08:40:03;98837.16;;;24.17;17.35
77877;BME280;67251;50.844;7.978;2023-04-06T08:42:32;98835.97;;;23.99;17.19
77877;BME280;67251;50.844;7.978;2023-04-06T08:44:59;98832.25;;;24.43;17.65
77877;BME280;67251;50.844;7.978;2023-04-06T08:47:24;98837.88;;;24.94;17.34
77877;BME280;67251;50.844;7.978;2023-04-06T08:49:50;98846.13;;;22.26;17.77
77877;BME280;67251;50.844;7.978;2023-04-06T08:52:18;98844.13;;;22.42;17.74
77877;BME280;67251;50.844;7.978;2023-04-06T08:54:44;98840.19;;;21.68;18.73
77877;BME280;67251;50.844;7.978;2023-04-06T08:57:09;98835.19;;;22.91;18.29
77877;BME280;67251;50.844;7.978;2023-04-06T08:59:35;98837.72;;;22.72;18.11
77877;BME280;67251;50.844;7.978;2023-04-06T09:02:04;98844.03;;;21.52;20.22
77877;BME280;67251;50.844;7.978;2023-04-06T09:04:35;98845.34;;;21.90;20.32
77877;BME280;67251;50.844;7.978;2023-04-06T09:07:01;98846.19;;;21.65;18.91
77877;BME280;67251;50.844;7.978;2023-04-06T09:09:27;98839.22;;;22.39;18.12
77877;BME280;67251;50.844;7.978;2023-04-06T09:11:53;98830.19;;;23.08;18.25
77877;BME280;67251;50.844;7.978;2023-04-06T09:14:38;98836.84;;;22.92;18.74
77877;BME280;67251;50.844;7.978;2023-04-06T09:17:07;98834.50;;;22.65;18.39
77877;BME280;67251;50.844;7.978;2023-04-06T09:19:33;98837.41;;;22.04;18.47
77877;BME280;67251;50.844;7.978;2023-04-06T09:22:05;98830.41;;;21.62;18.67
77877;BME280;67251;50.844;7.978;2023-04-06T09:24:45;98837.47;;;21.48;18.59
77877;BME280;67251;50.844;7.978;2023-04-06T09:27:12;98839.59;;;22.22;18.40
77877;BME280;67251;50.844;7.978;2023-04-06T09:29:38;98826.94;;;23.06;18.17
77877;BME280;67251;50.844;7.978;2023-04-06T09:32:04;98832.94;;;22.43;19.15
77877;BME280;67251;50.844;7.978;2023-04-06T09:34:30;98839.13;;;21.33;19.72
77877;BME280;67251;50.844;7.978;2023-04-06T09:36:56;98823.03;;;21.88;18.84
77877;BME280;67251;50.844;7.978;2023-04-06T09:39:23;98814.75;;;22.29;19.08
77877;BME280;67251;50.844;7.978;2023-04-06T09:41:54;98823.63;;;22.60;18.85
77877;BME280;67251;50.844;7.978;2023-04-06T09:44:19;98829.75;;;22.31;19.97
77877;BME280;67251;50.844;7.978;2023-04-06T09:46:46;98818.88;;;20.93;19.65
77877;BME280;67251;50.844;7.978;2023-04-06T09:49:13;98821.59;;;20.83;20.74
77877;BME280;67251;50.844;7.978;2023-04-06T09:51:46;98821.47;;;19.53;23.70
77877;BME280;67251;50.844;7.978;2023-04-06T09:54:18;98823.28;;;20.27;22.80
77877;BME280;67251;50.844;7.978;2023-04-06T09:56:47;98821.41;;;21.31;22.19
77877;BME280;67251;50.844;7.978;2023-04-06T10:08:07;98805.63;;;21.43;21.53
77877;BME280;67251;50.844;7.978;2023-04-06T10:10:34;98813.97;;;20.12;22.16
77877;BME280;67251;50.844;7.978;2023-04-06T10:12:59;98835.31;;;17.71;24.52
77877;BME280;67251;50.844;7.978;2023-04-06T10:15:26;98835.69;;;16.15;26.69
77877;BME280;67251;50.844;7.978;2023-04-06T10:17:52;98838.09;;;15.22;29.36
77877;BME280;67251;50.844;7.978;2023-04-06T10:20:25;98835.28;;;15.17;29.35
77877;BME280;67251;50.844;7.978;2023-04-06T10:22:59;98832.66;;;14.99;29.20
77877;BME280;67251;50.844;7.978;2023-04-06T10:25:33;98827.91;;;15.24;29.13
77877;BME280;67251;50.844;7.978;2023-04-06T10:28:06;98836.31;;;15.81;28.50
77877;BME280;67251;50.844;7.978;2023-04-06T10:30:41;98829.00;;;16.05;28.08
77877;BME280;67251;50.844;7.978;2023-04-06T10:33:18;98826.00;;;15.67;27.74
77877;BME280;67251;50.844;7.978;2023-04-06T10:35:45;98824.34;;;15.77;28.66
77877;BME280;67251;50.844;7.978;2023-04-06T10:38:11;98818.41;;;16.56;28.14
77877;BME280;67251;50.844;7.978;2023-04-06T10:40:42;98826.13;;;16.35;27.89
77877;BME280;67251;50.844;7.978;2023-04-06T10:43:17;98820.06;;;16.17;29.09
77877;BME280;67251;50.844;7.978;2023-04-06T10:45:44;98839.78;;;14.45;29.00
77877;BME280;67251;50.844;7.978;2023-04-06T10:50:50;98822.25;;;15.14;29.36
77877;BME280;67251;50.844;7.978;2023-04-06T10:53:23;98816.13;;;15.84;29.79
77877;BME280;67251;50.844;7.978;2023-04-06T10:55:56;98818.13;;;15.65;26.68
77877;BME280;67251;50.844;7.978;2023-04-06T10:58:25;98825.75;;;15.92;28.11
77877;BME280;67251;50.844;7.978;2023-04-06T11:00:51;98827.88;;;15.13;27.40
77877;BME280;67251;50.844;7.978;2023-04-06T11:03:17;98822.00;;;15.81;28.92
77877;BME280;67251;50.844;7.978;2023-04-06T11:05:44;98819.31;;;15.81;28.61
77877;BME280;67251;50.844;7.978;2023-04-06T11:08:10;98815.41;;;15.89;29.57
77877;BME280;67251;50.844;7.978;2023-04-06T11:10:35;98810.78;;;15.19;28.65
77877;BME280;67251;50.844;7.978;2023-04-06T11:13:01;98821.50;;;14.17;29.66
77877;BME280;67251;50.844;7.978;2023-04-06T11:15:26;98816.69;;;14.00;28.94
77877;BME280;67251;50.844;7.978;2023-04-06T11:17:51;98832.44;;;13.97;29.96
77877;BME280;67251;50.844;7.978;2023-04-06T11:20:17;98825.38;;;14.02;29.71
77877;BME280;67251;50.844;7.978;2023-04-06T11:23:02;98815.28;;;14.95;29.78
77877;BME280;67251;50.844;7.978;2023-04-06T11:25:28;98814.69;;;15.46;28.89
77877;BME280;67251;50.844;7.978;2023-04-06T11:27:56;98815.19;;;15.78;27.67
77877;BME280;67251;50.844;7.978;2023-04-06T11:30:22;98800.53;;;15.86;28.67
77877;BME280;67251;50.844;7.978;2023-04-06T11:32:47;98799.47;;;15.75;28.02
77877;BME280;67251;50.844;7.978;2023-04-06T11:35:21;98798.63;;;15.40;27.70
77877;BME280;67251;50.844;7.978;2023-04-06T11:37:51;98795.81;;;15.58;28.82
77877;BME280;67251;50.844;7.978;2023-04-06T11:40:23;98809.41;;;15.51;29.82
77877;BME280;67251;50.844;7.978;2023-04-06T11:42:56;98803.19;;;14.86;29.04
77877;BME280;67251;50.844;7.978;2023-04-06T11:45:22;98805.91;;;14.55;31.01
77877;BME280;67251;50.844;7.978;2023-04-06T11:47:58;98804.97;;;14.50;30.45
77877;BME280;67251;50.844;7.978;2023-04-06T11:50:24;98801.69;;;14.90;29.46
77877;BME280;67251;50.844;7.978;2023-04-06T11:53:00;98797.75;;;14.44;30.04
77877;BME280;67251;50.844;7.978;2023-04-06T11:55:26;98793.38;;;14.91;31.08
77877;BME280;67251;50.844;7.978;2023-04-06T11:57:53;98793.56;;;15.31;31.69
77877;BME280;67251;50.844;7.978;2023-04-06T12:00:18;98784.06;;;15.52;28.98
77877;BME280;67251;50.844;7.978;2023-04-06T12:02:46;98786.09;;;15.45;29.82
77877;BME280;67251;50.844;7.978;2023-04-06T12:05:11;98794.66;;;15.54;30.81
77877;BME280;67251;50.844;7.978;2023-04-06T12:07:37;98788.50;;;15.23;30.52
77877;BME280;67251;50.844;7.978;2023-04-06T12:10:03;98792.28;;;14.69;31.51
77877;BME280;67251;50.844;7.978;2023-04-06T12:12:29;98790.59;;;14.98;31.85
77877;BME280;67251;50.844;7.978;2023-04-06T12:14:55;98788.47;;;15.00;31.06
77877;BME280;67251;50.844;7.978;2023-04-06T12:17:21;98786.59;;;15.00;32.21
77877;BME280;67251;50.844;7.978;2023-04-06T12:19:46;98789.81;;;15.56;32.21
77877;BME280;67251;50.844;7.978;2023-04-06T12:22:12;98779.16;;;15.38;29.57
77877;BME280;67251;50.844;7.978;2023-04-06T12:24:38;98779.84;;;15.21;29.98
77877;BME280;67251;50.844;7.978;2023-04-06T12:27:03;98779.72;;;15.16;30.97
77877;BME280;67251;50.844;7.978;2023-04-06T12:29:29;98777.06;;;15.40;31.16
77877;BME280;67251;50.844;7.978;2023-04-06T12:31:54;98773.88;;;15.31;30.49
77877;BME280;67251;50.844;7.978;2023-04-06T12:34:20;98762.03;;;15.20;30.61
77877;BME280;67251;50.844;7.978;2023-04-06T12:36:45;98772.69;;;15.03;31.00
77877;BME280;67251;50.844;7.978;2023-04-06T12:39:11;98769.50;;;14.95;31.93
77877;BME280;67251;50.844;7.978;2023-04-06T12:41:37;98767.56;;;15.25;32.42
77877;BME280;67251;50.844;7.978;2023-04-06T12:44:05;98765.66;;;15.14;30.74
77877;BME280;67251;50.844;7.978;2023-04-06T12:46:31;98759.78;;;15.05;31.13
77877;BME280;67251;50.844;7.978;2023-04-06T12:48:56;98762.75;;;15.51;30.65
77877;BME280;67251;50.844;7.978;2023-04-06T12:51:24;98747.97;;;15.18;29.89
77877;BME280;67251;50.844;7.978;2023-04-06T12:53:50;98758.13;;;15.04;31.90
77877;BME280;67251;50.844;7.978;2023-04-06T12:56:16;98760.13;;;15.09;30.56
77877;BME280;67251;50.844;7.978;2023-04-06T12:58:43;98762.84;;;14.97;31.31
77877;BME280;67251;50.844;7.978;2023-04-06T13:01:09;98756.34;;;14.75;31.28
77877;BME280;67251;50.844;7.978;2023-04-06T13:03:36;98757.34;;;14.44;31.07
77877;BME280;67251;50.844;7.978;2023-04-06T13:06:02;98762.59;;;14.57;30.96
77877;BME280;67251;50.844;7.978;2023-04-06T13:08:27;98764.69;;;13.88;31.82
77877;BME280;67251;50.844;7.978;2023-04-06T13:10:53;98761.97;;;14.06;32.44